• Join FlightAware (Why Join?)
  • Login
  • US Flag 
08:59PM EDT


 

Airport Tracker/Info


-or-


 

Live Flight TrackerFlight Track Log ✈ N277CM ✈ 12-Feb-2014 ✈ KMTN - VA42

Flight Track Log - Related Links

Times and Time Zones

All times are in EST time to prevent confusion due to time zone crossing. See the N277CM flight status page for this flight to view local times or setup timezone preferences in your user account.

Time Position Orientation Groundspeed Altitude Reporting Facility
EST Latitude Longitude Course Direction KTS MPH feet Rate Location/Type
10:19AM 39.3333 -76.4500 176° South 109 125 1,500  Level Potomac TRACON
10:20AM 39.3167 -76.4500 180° South 111 128 2,600 780 Climbing Potomac TRACON
10:21AM 39.2833 -76.4500 180° South 127 146 3,000 120 Climbing Potomac TRACON
10:22AM 39.2333 -76.4333 166° South 150 173 2,900 -60 Descending Potomac TRACON
10:23AM 39.2000 -76.4167 159° South 149 171 2,900  Level Potomac TRACON
10:24AM 39.1405 -76.6156 176° South  Level Estimated
10:24AM 39.1500 -76.4000 166° South 151 174 3,000  Level Potomac TRACON
10:25AM 39.1167 -76.4000 180° South 152 175 2,900 -60 Descending Potomac TRACON
10:26AM 39.0833 -76.3833 159° South 152 175 2,900  Level Potomac TRACON
10:27AM 39.0333 -76.3833 180° South 151 174 2,900  Level Potomac TRACON
10:28AM 39.0000 -76.4000 201° Southwest 166 191 2,900  Level Potomac TRACON
10:29AM 38.9500 -76.4000 180° South 153 176 2,900  Level Potomac TRACON
10:30AM 38.9167 -76.4000 180° South 160 184 2,900  Level Potomac TRACON
10:31AM 38.8833 -76.4500 229° Southwest 165 190 2,900  Level Potomac TRACON
10:32AM 38.8667 -76.5000 247° West 164 189 3,000 60 Climbing Potomac TRACON
10:33AM 38.8333 -76.5500 229° Southwest 164 189 3,100  Climbing Potomac TRACON
10:33AM 38.8167 -76.5833 237° Southwest 165 190 3,100  Level Potomac TRACON
10:35AM 38.7833 -76.6333 229° Southwest 167 192 3,100 -60 Level Potomac TRACON
10:35AM 38.7603 -76.6700 231° Southwest 164 189 3,000 -60 Descending Washington Center
10:36AM 38.7314 -76.7169 232° Southwest 164 189 3,000  Level Washington Center
10:37AM 38.7031 -76.7644 233° Southwest 164 189 3,000  Level Washington Center
10:38AM 38.6739 -76.8114 231° Southwest 165 190 3,000  Level Washington Center
10:39AM 38.6453 -76.8578 232° Southwest 165 190 3,100  Climbing Washington Center
10:40AM 38.6175 -76.9039 232° Southwest 165 190 3,100  Level Washington Center
10:41AM 38.5842 -76.9583 232° Southwest 165 190 3,100  Level Washington Center
10:42AM 38.5553 -77.0044 231° Southwest 165 190 3,100  Level Washington Center
10:44AM 38.5272 -77.0494 231° Southwest 164 189 3,100  Level Washington Center
10:45AM 38.4986 -77.0958 232° Southwest 164 189 3,100  Level Washington Center
10:46AM 38.4703 -77.1414 232° Southwest 164 189 3,100 -240 Level Washington Center
10:47AM 38.4414 -77.1869 231° Southwest 164 189 2,700 -480 Descending Washington Center
10:48AM 38.4061 -77.2453 232° Southwest 165 190 2,200 -300 Descending Washington Center
10:49AM 38.3778 -77.2928 233° Southwest 167 192 2,100 -60 Descending Washington Center
10:50AM 38.3514 -77.3350 231° Southwest 167 192 2,100  Level Washington Center